sensor_id;sensor_type;location;lat;lon;timestamp;noise_LAeq;noise_LA_min;noise_LA_max;noise_LA01;noise_LA95
77135;Laerm;48586;50.122;18.972;2023-03-14T00:01:07;43.42;35.23;62.38;;
77135;Laerm;48586;50.122;18.972;2023-03-14T00:03:16;42.00;35.35;63.58;;
77135;Laerm;48586;50.122;18.972;2023-03-14T00:05:21;40.28;35.34;59.57;;
77135;Laerm;48586;50.122;18.972;2023-03-14T00:07:25;42.80;34.79;65.54;;
77135;Laerm;48586;50.122;18.972;2023-03-14T00:09:35;44.34;34.51;68.30;;
77135;Laerm;48586;50.122;18.972;2023-03-14T00:11:39;38.74;34.44;55.48;;
77135;Laerm;48586;50.122;18.972;2023-03-14T00:13:47;37.28;34.75;54.74;;
77135;Laerm;48586;50.122;18.972;2023-03-14T00:15:54;41.62;34.83;55.46;;
77135;Laerm;48586;50.122;18.972;2023-03-14T00:17:59;38.61;34.75;54.68;;
77135;Laerm;48586;50.122;18.972;2023-03-14T00:20:09;43.79;34.93;59.04;;
77135;Laerm;48586;50.122;18.972;2023-03-14T00:22:14;39.49;34.84;57.77;;
77135;Laerm;48586;50.122;18.972;2023-03-14T00:24:18;39.56;35.40;58.04;;
77135;Laerm;48586;50.122;18.972;2023-03-14T00:26:23;46.30;35.39;68.30;;
77135;Laerm;48586;50.122;18.972;2023-03-14T00:28:29;40.69;35.36;57.20;;
77135;Laerm;48586;50.122;18.972;2023-03-14T00:30:34;44.57;35.51;67.68;;
77135;Laerm;48586;50.122;18.972;2023-03-14T00:32:42;52.15;34.83;73.33;;
77135;Laerm;48586;50.122;18.972;2023-03-14T00:34:47;45.22;35.20;70.48;;
77135;Laerm;48586;50.122;18.972;2023-03-14T00:36:54;39.50;35.09;56.39;;
77135;Laerm;48586;50.122;18.972;2023-03-14T00:39:00;44.44;35.13;68.46;;
77135;Laerm;48586;50.122;18.972;2023-03-14T00:41:12;41.45;34.45;66.13;;
77135;Laerm;48586;50.122;18.972;2023-03-14T00:43:17;45.13;34.69;69.55;;
77135;Laerm;48586;50.122;18.972;2023-03-14T00:45:23;37.24;34.70;52.21;;
77135;Laerm;48586;50.122;18.972;2023-03-14T00:47:29;37.51;35.00;51.73;;
77135;Laerm;48586;50.122;18.972;2023-03-14T00:49:34;41.30;35.42;57.87;;
77135;Laerm;48586;50.122;18.972;2023-03-14T00:51:39;45.40;37.08;60.70;;
77135;Laerm;48586;50.122;18.972;2023-03-14T00:53:47;43.15;36.43;58.49;;
77135;Laerm;48586;50.122;18.972;2023-03-14T00:55:52;47.69;36.02;71.34;;
77135;Laerm;48586;50.122;18.972;2023-03-14T00:57:56;41.23;34.54;55.25;;
77135;Laerm;48586;50.122;18.972;2023-03-14T01:00:02;36.76;34.02;49.01;;
77135;Laerm;48586;50.122;18.972;2023-03-14T01:02:13;40.25;34.32;53.50;;
77135;Laerm;48586;50.122;18.972;2023-03-14T01:04:18;40.22;34.16;53.47;;
77135;Laerm;48586;50.122;18.972;2023-03-14T01:06:26;35.98;34.01;40.45;;
77135;Laerm;48586;50.122;18.972;2023-03-14T01:08:31;36.49;34.26;48.56;;
77135;Laerm;48586;50.122;18.972;2023-03-14T01:10:41;44.39;34.54;55.73;;
77135;Laerm;48586;50.122;18.972;2023-03-14T01:12:46;42.31;34.67;53.36;;
77135;Laerm;48586;50.122;18.972;2023-03-14T01:14:51;36.61;34.68;46.52;;
77135;Laerm;48586;50.122;18.972;2023-03-14T01:16:55;42.58;35.14;52.00;;
77135;Laerm;48586;50.122;18.972;2023-03-14T01:19:03;38.33;34.76;46.26;;
77135;Laerm;48586;50.122;18.972;2023-03-14T01:21:15;38.83;34.59;48.91;;
77135;Laerm;48586;50.122;18.972;2023-03-14T01:23:21;38.14;34.13;44.83;;
77135;Laerm;48586;50.122;18.972;2023-03-14T01:25:26;35.74;34.44;46.87;;
77135;Laerm;48586;50.122;18.972;2023-03-14T01:27:35;36.56;34.30;49.25;;
77135;Laerm;48586;50.122;18.972;2023-03-14T01:29:39;40.21;34.88;50.30;;
77135;Laerm;48586;50.122;18.972;2023-03-14T01:31:44;35.96;34.33;48.48;;
77135;Laerm;48586;50.122;18.972;2023-03-14T01:33:49;37.06;34.55;46.71;;
77135;Laerm;48586;50.122;18.972;2023-03-14T01:35:54;36.68;34.57;46.54;;
77135;Laerm;48586;50.122;18.972;2023-03-14T01:38:01;41.02;34.54;53.17;;
77135;Laerm;48586;50.122;18.972;2023-03-14T01:40:09;35.93;34.55;42.40;;
77135;Laerm;48586;50.122;18.972;2023-03-14T01:42:18;35.69;34.29;40.04;;
77135;Laerm;48586;50.122;18.972;2023-03-14T01:44:26;36.11;34.32;40.00;;
77135;Laerm;48586;50.122;18.972;2023-03-14T01:46:40;41.28;34.38;52.57;;
77135;Laerm;48586;50.122;18.972;2023-03-14T01:48:59;38.37;34.38;59.38;;
77135;Laerm;48586;50.122;18.972;2023-03-14T01:51:14;41.96;34.40;59.83;;
77135;Laerm;48586;50.122;18.972;2023-03-14T01:53:23;35.73;34.17;45.98;;
77135;Laerm;48586;50.122;18.972;2023-03-14T01:55:29;35.99;34.39;46.31;;
77135;Laerm;48586;50.122;18.972;2023-03-14T01:57:40;36.29;34.43;57.42;;
77135;Laerm;48586;50.122;18.972;2023-03-14T01:59:55;38.56;34.41;48.88;;
77135;Laerm;48586;50.122;18.972;2023-03-14T02:02:10;39.06;34.48;51.87;;
77135;Laerm;48586;50.122;18.972;2023-03-14T02:04:19;42.33;34.46;56.56;;
77135;Laerm;48586;50.122;18.972;2023-03-14T02:06:33;44.92;37.38;54.75;;
77135;Laerm;48586;50.122;18.972;2023-03-14T02:08:41;40.29;35.23;47.91;;
77135;Laerm;48586;50.122;18.972;2023-03-14T02:10:55;36.97;34.97;46.89;;
77135;Laerm;48586;50.122;18.972;2023-03-14T02:13:22;41.77;34.62;54.00;;
77135;Laerm;48586;50.122;18.972;2023-03-14T02:16:02;36.44;34.56;40.81;;
77135;Laerm;48586;50.122;18.972;2023-03-14T02:18:40;40.05;34.26;50.42;;
77135;Laerm;48586;50.122;18.972;2023-03-14T02:21:33;36.11;34.26;40.99;;
77135;Laerm;48586;50.122;18.972;2023-03-14T02:23:57;36.13;34.19;41.46;;
77135;Laerm;48586;50.122;18.972;2023-03-14T02:26:20;38.18;34.50;49.35;;
77135;Laerm;48586;50.122;18.972;2023-03-14T02:28:30;35.95;34.30;40.19;;
77135;Laerm;48586;50.122;18.972;2023-03-14T02:30:37;36.20;34.37;42.21;;
77135;Laerm;48586;50.122;18.972;2023-03-14T02:32:47;35.70;33.94;42.70;;
77135;Laerm;48586;50.122;18.972;2023-03-14T02:34:58;36.21;34.29;53.84;;
77135;Laerm;48586;50.122;18.972;2023-03-14T02:37:05;36.74;34.40;59.08;;
77135;Laerm;48586;50.122;18.972;2023-03-14T02:39:21;41.15;34.23;53.75;;
77135;Laerm;48586;50.122;18.972;2023-03-14T02:41:30;38.14;34.49;48.79;;
77135;Laerm;48586;50.122;18.972;2023-03-14T02:43:42;40.85;34.31;51.26;;
77135;Laerm;48586;50.122;18.972;2023-03-14T02:45:50;39.93;34.56;52.04;;
77135;Laerm;48586;50.122;18.972;2023-03-14T02:48:07;37.57;34.69;46.57;;
77135;Laerm;48586;50.122;18.972;2023-03-14T02:50:20;39.79;34.28;50.12;;
77135;Laerm;48586;50.122;18.972;2023-03-14T02:52:27;36.43;34.42;41.71;;
77135;Laerm;48586;50.122;18.972;2023-03-14T02:54:32;43.22;34.49;56.10;;
77135;Laerm;48586;50.122;18.972;2023-03-14T02:56:38;36.07;34.34;46.44;;
77135;Laerm;48586;50.122;18.972;2023-03-14T02:58:48;36.75;34.43;42.53;;
77135;Laerm;48586;50.122;18.972;2023-03-14T03:01:34;39.47;34.10;51.58;;
77135;Laerm;48586;50.122;18.972;2023-03-14T03:03:39;42.53;34.86;51.47;;
77135;Laerm;48586;50.122;18.972;2023-03-14T03:05:48;41.16;34.61;64.49;;
77135;Laerm;48586;50.122;18.972;2023-03-14T03:07:55;39.82;34.39;50.01;;
77135;Laerm;48586;50.122;18.972;2023-03-14T03:10:00;36.17;34.13;42.17;;
77135;Laerm;48586;50.122;18.972;2023-03-14T03:12:05;36.31;34.58;45.67;;
77135;Laerm;48586;50.122;18.972;2023-03-14T03:14:13;40.49;34.78;50.47;;
77135;Laerm;48586;50.122;18.972;2023-03-14T03:16:18;36.64;34.22;50.31;;
77135;Laerm;48586;50.122;18.972;2023-03-14T03:18:22;37.49;34.78;47.08;;
77135;Laerm;48586;50.122;18.972;2023-03-14T03:20:29;37.11;35.08;43.43;;
77135;Laerm;48586;50.122;18.972;2023-03-14T03:22:34;38.36;34.94;48.91;;
77135;Laerm;48586;50.122;18.972;2023-03-14T03:24:38;38.31;34.65;59.42;;
77135;Laerm;48586;50.122;18.972;2023-03-14T03:26:43;44.09;35.00;60.52;;
77135;Laerm;48586;50.122;18.972;2023-03-14T03:28:50;42.36;35.05;54.92;;
77135;Laerm;48586;50.122;18.972;2023-03-14T03:30:59;41.83;34.95;52.49;;
77135;Laerm;48586;50.122;18.972;2023-03-14T03:33:13;38.31;35.02;52.57;;
77135;Laerm;48586;50.122;18.972;2023-03-14T03:35:19;37.93;35.42;49.38;;
77135;Laerm;48586;50.122;18.972;2023-03-14T03:37:25;47.05;36.40;57.36;;
77135;Laerm;48586;50.122;18.972;2023-03-14T03:39:30;44.88;35.51;60.79;;
77135;Laerm;48586;50.122;18.972;2023-03-14T03:41:35;40.84;35.73;51.83;;
77135;Laerm;48586;50.122;18.972;2023-03-14T03:43:40;48.93;35.96;69.77;;
77135;Laerm;48586;50.122;18.972;2023-03-14T03:45:49;48.48;36.06;65.68;;
77135;Laerm;48586;50.122;18.972;2023-03-14T03:47:58;54.00;37.16;73.54;;
77135;Laerm;48586;50.122;18.972;2023-03-14T03:50:04;51.90;40.33;69.49;;
77135;Laerm;48586;50.122;18.972;2023-03-14T03:52:10;45.36;36.98;62.04;;
77135;Laerm;48586;50.122;18.972;2023-03-14T03:54:14;50.36;37.13;73.31;;
77135;Laerm;48586;50.122;18.972;2023-03-14T03:56:19;47.47;36.56;67.15;;
77135;Laerm;48586;50.122;18.972;2023-03-14T03:58:25;51.84;38.42;70.34;;
77135;Laerm;48586;50.122;18.972;2023-03-14T04:00:29;61.17;39.31;86.46;;
77135;Laerm;48586;50.122;18.972;2023-03-14T04:02:35;57.90;42.56;82.90;;
77135;Laerm;48586;50.122;18.972;2023-03-14T04:04:43;56.48;38.72;73.45;;
77135;Laerm;48586;50.122;18.972;2023-03-14T04:06:48;59.21;39.08;79.63;;
77135;Laerm;48586;50.122;18.972;2023-03-14T04:08:54;52.11;37.83;73.83;;
77135;Laerm;48586;50.122;18.972;2023-03-14T04:11:21;53.05;38.23;78.72;;
77135;Laerm;48586;50.122;18.972;2023-03-14T04:13:38;52.42;39.10;72.62;;
77135;Laerm;48586;50.122;18.972;2023-03-14T04:15:43;51.11;39.01;69.15;;
77135;Laerm;48586;50.122;18.972;2023-03-14T04:17:57;53.22;39.69;73.00;;
77135;Laerm;48586;50.122;18.972;2023-03-14T04:20:07;58.10;39.21;78.24;;
77135;Laerm;48586;50.122;18.972;2023-03-14T04:22:12;52.23;41.17;65.63;;
77135;Laerm;48586;50.122;18.972;2023-03-14T04:24:22;50.10;40.08;64.00;;
77135;Laerm;48586;50.122;18.972;2023-03-14T04:26:26;49.19;39.85;64.47;;
77135;Laerm;48586;50.122;18.972;2023-03-14T04:28:31;49.00;40.60;58.25;;
77135;Laerm;48586;50.122;18.972;2023-03-14T04:30:38;50.71;42.26;57.92;;
77135;Laerm;48586;50.122;18.972;2023-03-14T04:32:49;51.57;39.32;71.12;;
77135;Laerm;48586;50.122;18.972;2023-03-14T04:34:54;50.10;37.88;68.81;;
77135;Laerm;48586;50.122;18.972;2023-03-14T04:37:02;52.12;43.05;64.86;;
77135;Laerm;48586;50.122;18.972;2023-03-14T04:39:12;48.57;39.51;62.20;;
77135;Laerm;48586;50.122;18.972;2023-03-14T04:41:24;48.00;39.31;58.42;;
77135;Laerm;48586;50.122;18.972;2023-03-14T04:43:29;47.26;39.26;56.65;;
77135;Laerm;48586;50.122;18.972;2023-03-14T04:45:51;45.83;38.92;53.57;;
77135;Laerm;48586;50.122;18.972;2023-03-14T04:47:55;46.57;38.01;54.74;;
77135;Laerm;48586;50.122;18.972;2023-03-14T04:50:00;47.53;39.08;58.43;;
77135;Laerm;48586;50.122;18.972;2023-03-14T04:52:07;44.40;37.46;54.42;;
77135;Laerm;48586;50.122;18.972;2023-03-14T04:54:13;47.09;37.76;53.60;;
77135;Laerm;48586;50.122;18.972;2023-03-14T04:56:18;48.06;39.80;56.71;;
77135;Laerm;48586;50.122;18.972;2023-03-14T04:58:23;46.38;38.60;58.70;;
77135;Laerm;48586;50.122;18.972;2023-03-14T05:00:29;49.54;39.71;67.19;;
77135;Laerm;48586;50.122;18.972;2023-03-14T05:02:47;43.78;38.61;54.23;;
77135;Laerm;48586;50.122;18.972;2023-03-14T05:05:21;50.45;38.98;62.30;;
77135;Laerm;48586;50.122;18.972;2023-03-14T05:07:43;49.47;38.50;60.56;;
77135;Laerm;48586;50.122;18.972;2023-03-14T05:10:08;49.00;40.52;56.54;;
77135;Laerm;48586;50.122;18.972;2023-03-14T05:12:22;51.49;41.95;61.09;;
77135;Laerm;48586;50.122;18.972;2023-03-14T05:14:31;50.54;41.10;65.55;;
77135;Laerm;48586;50.122;18.972;2023-03-14T05:16:59;50.17;40.83;58.25;;
77135;Laerm;48586;50.122;18.972;2023-03-14T05:19:12;49.15;40.01;57.02;;
77135;Laerm;48586;50.122;18.972;2023-03-14T05:21:35;49.86;41.44;61.80;;
77135;Laerm;48586;50.122;18.972;2023-03-14T05:23:59;50.31;41.42;57.01;;
77135;Laerm;48586;50.122;18.972;2023-03-14T05:26:22;48.96;40.47;64.23;;
77135;Laerm;48586;50.122;18.972;2023-03-14T05:28:38;52.08;43.56;62.66;;
77135;Laerm;48586;50.122;18.972;2023-03-14T05:30:54;50.32;40.56;65.48;;
77135;Laerm;48586;50.122;18.972;2023-03-14T05:33:19;52.26;45.09;71.65;;
77135;Laerm;48586;50.122;18.972;2023-03-14T05:35:42;49.33;41.92;67.20;;
77135;Laerm;48586;50.122;18.972;2023-03-14T05:38:06;51.18;43.03;73.18;;
77135;Laerm;48586;50.122;18.972;2023-03-14T05:40:42;51.71;42.88;68.18;;
77135;Laerm;48586;50.122;18.972;2023-03-14T05:43:10;52.00;41.62;70.43;;
77135;Laerm;48586;50.122;18.972;2023-03-14T05:45:28;50.60;43.42;64.41;;
77135;Laerm;48586;50.122;18.972;2023-03-14T05:47:41;51.87;45.92;60.87;;
77135;Laerm;48586;50.122;18.972;2023-03-14T05:50:10;50.47;41.43;67.18;;
77135;Laerm;48586;50.122;18.972;2023-03-14T05:52:29;49.65;42.20;58.60;;
77135;Laerm;48586;50.122;18.972;2023-03-14T05:54:43;50.87;41.74;59.32;;
77135;Laerm;48586;50.122;18.972;2023-03-14T05:57:09;50.74;40.92;56.52;;
77135;Laerm;48586;50.122;18.972;2023-03-14T05:59:36;50.20;42.68;58.73;;
77135;Laerm;48586;50.122;18.972;2023-03-14T06:02:00;48.09;40.33;57.09;;
77135;Laerm;48586;50.122;18.972;2023-03-14T06:04:13;49.75;40.12;59.80;;
77135;Laerm;48586;50.122;18.972;2023-03-14T06:06:22;52.85;43.48;62.39;;
77135;Laerm;48586;50.122;18.972;2023-03-14T06:08:27;51.56;41.56;61.93;;
77135;Laerm;48586;50.122;18.972;2023-03-14T06:10:35;51.19;41.77;68.45;;
77135;Laerm;48586;50.122;18.972;2023-03-14T06:12:42;50.36;42.08;60.03;;
77135;Laerm;48586;50.122;18.972;2023-03-14T06:14:47;52.18;43.65;69.57;;
77135;Laerm;48586;50.122;18.972;2023-03-14T06:16:52;52.41;44.13;65.82;;
77135;Laerm;48586;50.122;18.972;2023-03-14T06:18:59;50.35;42.57;61.73;;
77135;Laerm;48586;50.122;18.972;2023-03-14T06:21:05;53.15;44.58;68.09;;
77135;Laerm;48586;50.122;18.972;2023-03-14T06:23:12;53.79;42.30;71.02;;
77135;Laerm;48586;50.122;18.972;2023-03-14T06:25:17;54.56;44.72;67.65;;
77135;Laerm;48586;50.122;18.972;2023-03-14T06:27:23;56.56;47.74;76.64;;
77135;Laerm;48586;50.122;18.972;2023-03-14T06:29:37;53.53;45.34;69.60;;
77135;Laerm;48586;50.122;18.972;2023-03-14T06:31:43;55.37;44.01;74.65;;
77135;Laerm;48586;50.122;18.972;2023-03-14T06:33:51;52.74;45.96;72.17;;
77135;Laerm;48586;50.122;18.972;2023-03-14T06:35:59;51.76;45.57;60.65;;
77135;Laerm;48586;50.122;18.972;2023-03-14T06:38:04;53.49;44.63;65.25;;
77135;Laerm;48586;50.122;18.972;2023-03-14T06:40:11;51.48;42.67;66.05;;
77135;Laerm;48586;50.122;18.972;2023-03-14T06:42:33;52.28;43.05;61.57;;
77135;Laerm;48586;50.122;18.972;2023-03-14T06:44:42;53.08;44.66;61.33;;
77135;Laerm;48586;50.122;18.972;2023-03-14T06:46:46;72.35;45.67;87.10;;
77135;Laerm;48586;50.122;18.972;2023-03-14T06:48:51;53.06;45.48;59.75;;
77135;Laerm;48586;50.122;18.972;2023-03-14T06:50:56;51.28;44.33;61.72;;
77135;Laerm;48586;50.122;18.972;2023-03-14T06:53:02;52.06;45.52;57.50;;
77135;Laerm;48586;50.122;18.972;2023-03-14T06:55:10;54.30;44.50;67.58;;
77135;Laerm;48586;50.122;18.972;2023-03-14T06:57:15;55.09;50.00;63.03;;
77135;Laerm;48586;50.122;18.972;2023-03-14T06:59:22;53.49;44.72;65.53;;
77135;Laerm;48586;50.122;18.972;2023-03-14T07:01:31;55.06;46.58;68.29;;
77135;Laerm;48586;50.122;18.972;2023-03-14T07:03:42;54.26;46.27;66.24;;
77135;Laerm;48586;50.122;18.972;2023-03-14T07:05:47;50.23;43.27;56.57;;
77135;Laerm;48586;50.122;18.972;2023-03-14T07:07:52;52.46;44.32;65.74;;
77135;Laerm;48586;50.122;18.972;2023-03-14T07:09:59;52.21;43.27;63.99;;
77135;Laerm;48586;50.122;18.972;2023-03-14T07:12:05;52.48;44.93;60.44;;
77135;Laerm;48586;50.122;18.972;2023-03-14T07:14:12;50.83;42.05;58.25;;
77135;Laerm;48586;50.122;18.972;2023-03-14T07:16:17;52.00;43.95;60.30;;
77135;Laerm;48586;50.122;18.972;2023-03-14T07:18:24;53.67;43.26;72.86;;
77135;Laerm;48586;50.122;18.972;2023-03-14T07:20:31;49.97;43.43;59.58;;
77135;Laerm;48586;50.122;18.972;2023-03-14T07:22:37;54.74;44.73;68.65;;
77135;Laerm;48586;50.122;18.972;2023-03-14T07:24:43;56.09;48.17;75.16;;
77135;Laerm;48586;50.122;18.972;2023-03-14T07:26:49;58.30;46.66;81.93;;
77135;Laerm;48586;50.122;18.972;2023-03-14T07:28:54;54.50;45.01;67.90;;
77135;Laerm;48586;50.122;18.972;2023-03-14T07:31:00;57.38;44.89;79.69;;
77135;Laerm;48586;50.122;18.972;2023-03-14T07:33:09;55.79;46.25;75.55;;
77135;Laerm;48586;50.122;18.972;2023-03-14T07:35:16;53.63;44.34;73.76;;
77135;Laerm;48586;50.122;18.972;2023-03-14T07:37:23;56.06;47.66;71.20;;
77135;Laerm;48586;50.122;18.972;2023-03-14T07:39:28;54.93;47.69;73.05;;
77135;Laerm;48586;50.122;18.972;2023-03-14T07:41:40;53.18;42.44;65.23;;
77135;Laerm;48586;50.122;18.972;2023-03-14T07:44:09;51.29;44.39;67.25;;
77135;Laerm;48586;50.122;18.972;2023-03-14T07:46:15;54.11;46.07;65.01;;
77135;Laerm;48586;50.122;18.972;2023-03-14T07:48:20;55.68;46.26;74.81;;
77135;Laerm;48586;50.122;18.972;2023-03-14T07:50:29;53.69;45.03;71.54;;
77135;Laerm;48586;50.122;18.972;2023-03-14T07:52:35;56.24;47.67;72.12;;
77135;Laerm;48586;50.122;18.972;2023-03-14T07:54:41;63.25;47.01;86.77;;
77135;Laerm;48586;50.122;18.972;2023-03-14T07:56:45;59.54;46.88;82.17;;
77135;Laerm;48586;50.122;18.972;2023-03-14T07:58:51;57.91;45.18;74.21;;
77135;Laerm;48586;50.122;18.972;2023-03-14T08:00:59;56.32;42.49;76.79;;
77135;Laerm;48586;50.122;18.972;2023-03-14T08:03:05;54.22;42.86;67.07;;
77135;Laerm;48586;50.122;18.972;2023-03-14T08:05:12;54.64;42.90;76.53;;
77135;Laerm;48586;50.122;18.972;2023-03-14T08:07:19;58.73;45.24;75.59;;
77135;Laerm;48586;50.122;18.972;2023-03-14T08:09:25;57.55;44.64;77.52;;
77135;Laerm;48586;50.122;18.972;2023-03-14T08:11:31;53.97;45.26;74.25;;
77135;Laerm;48586;50.122;18.972;2023-03-14T08:13:36;56.02;45.16;75.74;;
77135;Laerm;48586;50.122;18.972;2023-03-14T08:15:42;55.85;43.26;75.84;;
77135;Laerm;48586;50.122;18.972;2023-03-14T08:17:48;55.89;45.31;73.04;;
77135;Laerm;48586;50.122;18.972;2023-03-14T08:19:54;54.91;45.53;74.11;;
77135;Laerm;48586;50.122;18.972;2023-03-14T08:22:00;63.28;45.13;83.77;;
77135;Laerm;48586;50.122;18.972;2023-03-14T08:24:09;73.81;44.00;86.11;;
77135;Laerm;48586;50.122;18.972;2023-03-14T08:26:13;56.01;43.59;80.54;;
77135;Laerm;48586;50.122;18.972;2023-03-14T08:28:18;52.27;42.11;64.94;;
77135;Laerm;48586;50.122;18.972;2023-03-14T08:30:25;53.42;42.84;71.06;;
77135;Laerm;48586;50.122;18.972;2023-03-14T08:32:29;53.72;43.43;69.23;;
77135;Laerm;48586;50.122;18.972;2023-03-14T08:34:34;58.29;46.35;76.46;;
77135;Laerm;48586;50.122;18.972;2023-03-14T08:36:39;56.10;46.29;77.34;;
77135;Laerm;48586;50.122;18.972;2023-03-14T08:38:44;54.97;45.39;72.15;;
77135;Laerm;48586;50.122;18.972;2023-03-14T08:40:56;54.15;45.07;74.48;;
77135;Laerm;48586;50.122;18.972;2023-03-14T08:43:02;51.00;43.59;67.49;;
77135;Laerm;48586;50.122;18.972;2023-03-14T08:45:12;56.76;44.50;76.67;;
77135;Laerm;48586;50.122;18.972;2023-03-14T08:47:18;58.79;43.84;77.94;;
77135;Laerm;48586;50.122;18.972;2023-03-14T08:49:23;60.27;44.04;78.22;;
77135;Laerm;48586;50.122;18.972;2023-03-14T08:51:29;56.19;48.02;79.94;;
77135;Laerm;48586;50.122;18.972;2023-03-14T08:53:33;53.07;44.16;64.99;;
77135;Laerm;48586;50.122;18.972;2023-03-14T08:55:40;54.29;45.11;69.63;;
77135;Laerm;48586;50.122;18.972;2023-03-14T08:57:47;54.75;46.26;73.84;;
77135;Laerm;48586;50.122;18.972;2023-03-14T08:59:53;54.41;43.51;71.31;;
77135;Laerm;48586;50.122;18.972;2023-03-14T09:02:00;55.83;44.89;75.07;;
77135;Laerm;48586;50.122;18.972;2023-03-14T09:04:07;53.61;45.74;71.59;;
77135;Laerm;48586;50.122;18.972;2023-03-14T09:06:12;52.42;42.12;67.55;;
77135;Laerm;48586;50.122;18.972;2023-03-14T09:08:21;52.03;44.22;66.51;;
77135;Laerm;48586;50.122;18.972;2023-03-14T09:10:26;52.90;44.10;70.21;;
77135;Laerm;48586;50.122;18.972;2023-03-14T09:12:30;53.65;42.43;69.59;;
77135;Laerm;48586;50.122;18.972;2023-03-14T09:14:39;54.58;41.35;68.70;;
77135;Laerm;48586;50.122;18.972;2023-03-14T09:16:43;51.68;44.13;62.61;;
77135;Laerm;48586;50.122;18.972;2023-03-14T09:18:48;51.91;42.91;65.75;;
77135;Laerm;48586;50.122;18.972;2023-03-14T09:20:57;52.11;42.00;65.47;;
77135;Laerm;48586;50.122;18.972;2023-03-14T09:23:02;52.23;44.93;72.02;;
77135;Laerm;48586;50.122;18.972;2023-03-14T09:25:08;56.47;44.33;66.87;;
77135;Laerm;48586;50.122;18.972;2023-03-14T09:27:15;48.84;41.14;55.38;;
77135;Laerm;48586;50.122;18.972;2023-03-14T09:29:20;50.93;43.60;58.92;;
77135;Laerm;48586;50.122;18.972;2023-03-14T09:31:27;51.13;42.55;67.31;;
77135;Laerm;48586;50.122;18.972;2023-03-14T09:33:32;52.04;43.79;69.54;;
77135;Laerm;48586;50.122;18.972;2023-03-14T09:35:38;48.22;42.38;60.32;;
77135;Laerm;48586;50.122;18.972;2023-03-14T09:37:43;54.51;44.27;69.26;;
77135;Laerm;48586;50.122;18.972;2023-03-14T09:39:49;51.57;41.61;67.95;;
77135;Laerm;48586;50.122;18.972;2023-03-14T09:41:58;53.90;44.52;70.93;;
77135;Laerm;48586;50.122;18.972;2023-03-14T09:44:18;51.78;44.34;66.85;;
77135;Laerm;48586;50.122;18.972;2023-03-14T09:46:31;56.09;43.56;71.40;;
77135;Laerm;48586;50.122;18.972;2023-03-14T09:48:38;73.78;42.23;86.32;;
77135;Laerm;48586;50.122;18.972;2023-03-14T09:50:50;68.72;44.56;86.89;;
77135;Laerm;48586;50.122;18.972;2023-03-14T09:53:04;51.28;43.27;61.94;;
77135;Laerm;48586;50.122;18.972;2023-03-14T09:55:16;56.34;44.24;77.19;;
77135;Laerm;48586;50.122;18.972;2023-03-14T09:57:26;52.17;43.17;66.97;;
77135;Laerm;48586;50.122;18.972;2023-03-14T09:59:36;57.30;46.22;76.90;;
77135;Laerm;48586;50.122;18.972;2023-03-14T10:01:43;53.78;41.38;73.14;;
77135;Laerm;48586;50.122;18.972;2023-03-14T10:03:48;54.85;43.83;74.67;;
77135;Laerm;48586;50.122;18.972;2023-03-14T10:05:56;62.08;44.67;82.56;;
77135;Laerm;48586;50.122;18.972;2023-03-14T10:08:00;59.29;41.63;79.41;;
77135;Laerm;48586;50.122;18.972;2023-03-14T10:10:14;56.92;41.91;75.93;;
77135;Laerm;48586;50.122;18.972;2023-03-14T10:12:31;54.69;44.36;69.85;;
77135;Laerm;48586;50.122;18.972;2023-03-14T10:14:44;52.21;40.34;72.02;;
77135;Laerm;48586;50.122;18.972;2023-03-14T10:16:51;53.77;42.87;67.99;;
77135;Laerm;48586;50.122;18.972;2023-03-14T10:19:04;56.77;42.25;79.22;;
77135;Laerm;48586;50.122;18.972;2023-03-14T10:21:26;53.12;42.40;66.05;;
77135;Laerm;48586;50.122;18.972;2023-03-14T10:23:33;52.27;43.82;69.89;;
77135;Laerm;48586;50.122;18.972;2023-03-14T10:25:44;52.88;43.90;66.62;;
77135;Laerm;48586;50.122;18.972;2023-03-14T10:27:49;53.07;43.15;72.63;;
77135;Laerm;48586;50.122;18.972;2023-03-14T10:29:56;54.62;42.94;83.08;;
77135;Laerm;48586;50.122;18.972;2023-03-14T10:32:10;53.79;45.27;67.70;;
77135;Laerm;48586;50.122;18.972;2023-03-14T10:34:26;52.07;41.53;59.52;;
77135;Laerm;48586;50.122;18.972;2023-03-14T10:36:33;52.89;40.85;66.09;;
77135;Laerm;48586;50.122;18.972;2023-03-14T10:38:39;54.97;46.92;71.61;;
77135;Laerm;48586;50.122;18.972;2023-03-14T10:40:50;51.99;43.08;68.12;;
77135;Laerm;48586;50.122;18.972;2023-03-14T10:42:56;51.95;42.80;70.89;;
77135;Laerm;48586;50.122;18.972;2023-03-14T10:45:15;52.67;41.96;69.78;;
77135;Laerm;48586;50.122;18.972;2023-03-14T10:47:29;52.39;44.13;62.94;;
77135;Laerm;48586;50.122;18.972;2023-03-14T10:49:36;55.87;44.02;77.64;;
77135;Laerm;48586;50.122;18.972;2023-03-14T10:51:41;55.48;41.52;74.93;;
77135;Laerm;48586;50.122;18.972;2023-03-14T10:53:49;53.34;44.26;74.02;;
77135;Laerm;48586;50.122;18.972;2023-03-14T10:55:56;53.99;43.25;69.24;;
77135;Laerm;48586;50.122;18.972;2023-03-14T10:58:01;55.90;44.06;75.81;;
77135;Laerm;48586;50.122;18.972;2023-03-14T11:00:12;52.67;44.76;65.20;;
77135;Laerm;48586;50.122;18.972;2023-03-14T11:02:46;69.29;45.17;83.35;;
77135;Laerm;48586;50.122;18.972;2023-03-14T11:05:16;53.27;42.91;71.19;;
77135;Laerm;48586;50.122;18.972;2023-03-14T11:07:32;54.58;42.07;69.39;;
77135;Laerm;48586;50.122;18.972;2023-03-14T11:09:49;52.54;43.03;65.62;;
77135;Laerm;48586;50.122;18.972;2023-03-14T11:12:12;52.65;44.24;72.23;;
77135;Laerm;48586;50.122;18.972;2023-03-14T11:14:33;53.18;44.93;66.82;;
77135;Laerm;48586;50.122;18.972;2023-03-14T11:16:53;51.97;44.71;62.25;;
77135;Laerm;48586;50.122;18.972;2023-03-14T11:19:36;52.19;44.52;61.88;;
77135;Laerm;48586;50.122;18.972;2023-03-14T11:21:56;51.33;42.98;65.85;;
77135;Laerm;48586;50.122;18.972;2023-03-14T11:24:28;50.40;39.75;70.04;;
77135;Laerm;48586;50.122;18.972;2023-03-14T11:26:47;53.28;41.97;71.70;;
77135;Laerm;48586;50.122;18.972;2023-03-14T11:29:02;57.26;46.76;77.39;;
77135;Laerm;48586;50.122;18.972;2023-03-14T11:31:22;59.27;40.60;78.63;;
77135;Laerm;48586;50.122;18.972;2023-03-14T11:33:38;53.08;43.41;69.40;;
77135;Laerm;48586;50.122;18.972;2023-03-14T11:35:55;54.94;41.66;75.97;;
77135;Laerm;48586;50.122;18.972;2023-03-14T11:38:18;53.78;40.18;73.39;;
77135;Laerm;48586;50.122;18.972;2023-03-14T11:40:27;53.28;44.89;66.09;;
77135;Laerm;48586;50.122;18.972;2023-03-14T11:42:33;52.90;44.87;71.47;;
77135;Laerm;48586;50.122;18.972;2023-03-14T11:44:40;50.98;43.41;62.73;;
77135;Laerm;48586;50.122;18.972;2023-03-14T11:46:55;54.46;41.87;67.10;;
77135;Laerm;48586;50.122;18.972;2023-03-14T11:49:17;51.13;43.15;62.77;;
77135;Laerm;48586;50.122;18.972;2023-03-14T11:51:34;50.95;42.62;64.18;;
77135;Laerm;48586;50.122;18.972;2023-03-14T11:53:58;57.27;43.20;81.31;;
77135;Laerm;48586;50.122;18.972;2023-03-14T11:56:17;52.07;42.57;67.22;;
77135;Laerm;48586;50.122;18.972;2023-03-14T11:58:30;55.57;46.50;73.09;;